Birmingham, AL (35210)

5:17 PM CST on February 14, 2016 (GMT -0600)
Hunters Hill | | Change Station
CLOSE
Current Station
Personal Weather Station
Location: Irondale, AL
Elevation: 817 ft
Nearby Weather Stations

Elev 817 ft 33.52 °N, 86.68 °W | Updated 18 seconds ago

Overcast
Overcast
52.2 °F
Feels Like 52.2 °F
N
0.0
Wind Variable Wind from NW
Gusts 2.0 mph

Today
High -- | Low -- °F
--% Chance of Precip.
Yesterday
High -- | Low -- °F
Precip. -- in
Pressure 30.13 in
Visibility 10.0 miles
Clouds Few 7500 ft
Mostly Cloudy 25000 ft
Dew Point 22 °F
Humidity 31%
Rainfall 0.00 in
Snow Depth Not available.
6:32 AM 5:29 PM
Waxing Crescent, 46% visible
METAR KBHM 142253Z 16007KT 10SM FEW075 BKN250 13/M09 A3012 RMK AO2 SLP201 T01281094
Pressure 30.13 in
Visibility 10.0 miles
Clouds Few 7500 ft
Mostly Cloudy 25000 ft
Dew Point 22 °F
Humidity 31%
Rainfall 0.00 in
Snow Depth Not available.
6:32 AM 5:29 PM
Waxing Crescent, 46% visible
METAR KBHM 142253Z 16007KT 10SM FEW075 BKN250 13/M09 A3012 RMK AO2 SLP201 T01281094

10-Day Weather Forecast

Almanac

Astronomy

Feb. 14, 2016 Rise Set
Actual Time
Civil Twilight
Nautical Twilight
Astronomical Twilight
Moon
Length of Visible Light
Length of Day
Tomorrow will be .
, % of the Moon is Illuminated

Today's Extremes

State Highs State Lows

Community

WunderPhotos

Upload Photos

1,892,913 photos uploaded!

WunderBlog® & News

Nearby

Air Quality

  Air Quality AQ Index Pollutant
Not available.

Snow Depth

Station Depth Elevation

Earthquake Activity

City Distance Mag. Time & Date
Minimum magnitude displayed is 2.5.

Coastal Water Temperatures

Place Temperature

Stations

Nearby Weather Stations

Station Location Temp. Windchill Dew Point Humidity Wind Precip. Elev Updated Type
                   

Watches & Warnings

There are currently no watches in effect.